Airfield :
LOGIN :

Register | Disclaimer

   EN    FR    IT 

 










Legend :    VFR   Marginal VFR   IFR   Intensive IFR   Very Intensive IFR
Visi :
Ceiling :
>= 8 km
>= 3000ft
5 to 8 km
1000 to 3000 ft
1500m to 5 km
500 to 1000 ft
800 to 1500m
200 to 500 ft
< 800m
< 200 ft
Symbols :   Thunderstorms  Fog  Heavy snow  Heavy precipitations  Wind > 20 kt
SIGMETs :     Misc.  Thunderstorms  Icing  Turbulence  Mountain Waves  Volcanic Ashes






- Airport Elevation : 776 ft
- IATA code : RMS


ETAR - Ramstein Air Base

CURRENT METAR :
  • 240956Z 09004KT 3600 BR OVC002 04/04 A3030 RMK AO2A SLP274 T00400040 FZRANO VISNO RWY08 CHINO RWY08 $

EXPIRED METARs :
  • 240941Z 07008KT 3200 BR OVC002 04/04 A3030 RMK AO2A SLP274 FZRANO VISNO RWY08 CHINO RWY08 $
  • 240911Z AUTO 08007KT 3200 BR OVC002 04/04 A3030 RMK AO2 VIS 2400 RWY09 SLP274 FZRANO VISNO RWY08 CHINO RWY08 $
  • 240856Z AUTO 06006KT 3600 BR OVC002 04/04 A3030 RMK AO2 VIS 3000V4000 VIS 1800 RWY09 VIS 2400 RWY27 SLP274 T00350035 55003 FZRANO VISNO RWY08 CHINO RWY08 $
  • 240841Z AUTO 07006KT 2600 BR OVC002 03/03 A3030 RMK AO2 SLP274 FZRANO $
  • 240811Z 03004KT 2800 BR OVC002 03/03 A3031 RMK AO2A SLP277 FZRANO $
  • 240756Z 03004KT 2400 BR OVC002 03/03 A3031 RMK AO2A SLP277 T00320032 FZRANO
  • 240751Z 06004KT 2200 BR OVC002 03/03 A3031 RMK AO2A SLP277 FZRANO $
  • 240736Z 06005KT 1800 BR OVC002 03/03 A3031 RMK AO2A SLP277 FZRANO $
  • 240726Z 07004KT 1800 BR OVC002 03/03 A3031 RMK AO2A SLP277 FZRANO $
  • 240711Z 02003KT 1800 BR OVC002 03/03 A3031 RMK AO2A SLP277 FZRANO $

TAF AMD TAF ETAR
Valid from the 24 at 05:00 until the 25 at 08:00 UTC


240555Z 2405/2508 09006KT 1600 BR BKN002 QNH3028INS
TEMPO 2406/2408 0800 FG VV002
TEMPO 2408/2411 3200 BR
BECMG 2410/2411 12006KT 6000 BR FEW001 SCT008 BKN015 QNH3020INS
BECMG 2417/2418 VRB06KT 6000 BR SCT001 BKN008 QNH3015INS
BECMG 2421/2422 16006KT 0400 FG VV001 QNH3012INS
BECMG 2507/2508 22009KT 9999 NSW SCT001 BKN015 QNH3009INS TX07/2413Z TN01/2503Z



MET'MAP, your aeronautical weather chart ! - Copyright ORBIFLY December 2007 - Disclaimer

ORBIFLY MET'MAP TEAM :

Programming & Development : Alexandra Zaïnal
Concept & original design : Baudouin d'Aumeries
Assistance for programming : Marc-Olivier Méhu
Technical & hardware support : Manuel Goepfert

Contact : metmap@orbifly.com




SOURCES & CREDITS :

   NOAA